sensor_id;sensor_type;location;lat;lon;timestamp;pressure;altitude;pressure_sealevel;temperature;humidity
26087;BME280;13851;43.434;28.338;2023-04-27T00:01:12;99286.66;;;11.30;100.00
26087;BME280;13851;43.434;28.338;2023-04-27T00:03:38;98975.72;;;9.10;100.00
26087;BME280;13851;43.434;28.338;2023-04-27T00:06:04;99059.88;;;9.79;100.00
26087;BME280;13851;43.434;28.338;2023-04-27T00:08:29;99266.00;;;11.00;100.00
26087;BME280;13851;43.434;28.338;2023-04-27T00:10:55;99141.69;;;10.23;100.00
26087;BME280;13851;43.434;28.338;2023-04-27T00:13:21;99300.34;;;11.24;100.00
26087;BME280;13851;43.434;28.338;2023-04-27T00:15:46;99215.78;;;10.64;100.00
26087;BME280;13851;43.434;28.338;2023-04-27T00:18:12;99309.19;;;11.26;100.00
26087;BME280;13851;43.434;28.338;2023-04-27T00:20:38;99386.66;;;11.28;100.00
26087;BME280;13851;43.434;28.338;2023-04-27T00:23:04;98982.38;;;9.22;100.00
26087;BME280;13851;43.434;28.338;2023-04-27T00:25:32;99318.06;;;11.00;100.00
26087;BME280;13851;43.434;28.338;2023-04-27T00:27:58;99296.00;;;11.08;100.00
26087;BME280;13851;43.434;28.338;2023-04-27T00:30:23;99332.44;;;11.30;100.00
26087;BME280;13851;43.434;28.338;2023-04-27T00:32:49;99222.13;;;10.65;100.00
26087;BME280;13851;43.434;28.338;2023-04-27T00:35:15;99296.41;;;11.05;100.00
26087;BME280;13851;43.434;28.338;2023-04-27T00:37:40;99339.81;;;11.29;100.00
26087;BME280;13851;43.434;28.338;2023-04-27T00:40:06;98909.63;;;8.78;100.00
26087;BME280;13851;43.434;28.338;2023-04-27T00:42:33;99333.69;;;11.27;100.00
26087;BME280;13851;43.434;28.338;2023-04-27T00:44:59;99306.22;;;10.92;100.00
26087;BME280;13851;43.434;28.338;2023-04-27T00:47:24;99021.47;;;9.23;100.00
26087;BME280;13851;43.434;28.338;2023-04-27T00:49:50;99381.25;;;10.91;100.00
26087;BME280;13851;43.434;28.338;2023-04-27T00:52:16;99292.38;;;10.51;100.00
26087;BME280;13851;43.434;28.338;2023-04-27T00:54:42;99342.75;;;11.00;100.00
26087;BME280;13851;43.434;28.338;2023-04-27T00:57:08;99280.50;;;10.65;100.00
26087;BME280;13851;43.434;28.338;2023-04-27T00:59:33;99274.31;;;10.35;100.00
26087;BME280;13851;43.434;28.338;2023-04-27T01:01:59;99363.38;;;10.96;100.00
26087;BME280;13851;43.434;28.338;2023-04-27T01:04:26;99337.00;;;10.94;100.00
26087;BME280;13851;43.434;28.338;2023-04-27T01:06:53;99277.28;;;10.62;100.00
26087;BME280;13851;43.434;28.338;2023-04-27T01:09:19;99327.63;;;10.82;100.00
26087;BME280;13851;43.434;28.338;2023-04-27T01:11:45;99333.56;;;10.86;100.00
26087;BME280;13851;43.434;28.338;2023-04-27T01:14:11;99344.31;;;10.87;100.00
26087;BME280;13851;43.434;28.338;2023-04-27T01:16:36;98930.44;;;8.43;100.00
26087;BME280;13851;43.434;28.338;2023-04-27T01:19:03;99319.53;;;10.74;100.00
26087;BME280;13851;43.434;28.338;2023-04-27T01:21:29;99340.69;;;10.80;100.00
26087;BME280;13851;43.434;28.338;2023-04-27T01:23:55;99327.16;;;10.36;100.00
26087;BME280;13851;43.434;28.338;2023-04-27T01:26:21;99334.34;;;10.22;100.00
26087;BME280;13851;43.434;28.338;2023-04-27T01:28:47;99397.53;;;10.57;100.00
26087;BME280;13851;43.434;28.338;2023-04-27T01:31:12;99314.97;;;10.38;100.00
26087;BME280;13851;43.434;28.338;2023-04-27T01:33:39;99337.03;;;10.52;100.00
26087;BME280;13851;43.434;28.338;2023-04-27T01:36:05;99413.22;;;10.48;100.00
26087;BME280;13851;43.434;28.338;2023-04-27T01:38:34;99342.34;;;10.38;100.00
26087;BME280;13851;43.434;28.338;2023-04-27T01:41:03;99288.03;;;9.70;100.00
26087;BME280;13851;43.434;28.338;2023-04-27T01:43:29;99294.97;;;9.87;100.00
26087;BME280;13851;43.434;28.338;2023-04-27T01:45:56;99334.53;;;10.21;100.00
26087;BME280;13851;43.434;28.338;2023-04-27T01:48:21;99286.59;;;9.88;100.00
26087;BME280;13851;43.434;28.338;2023-04-27T01:50:47;99328.00;;;9.85;100.00
26087;BME280;13851;43.434;28.338;2023-04-27T01:53:12;99331.25;;;10.25;100.00
26087;BME280;13851;43.434;28.338;2023-04-27T01:55:38;99316.75;;;10.10;100.00
26087;BME280;13851;43.434;28.338;2023-04-27T01:58:04;98883.34;;;7.46;100.00
26087;BME280;13851;43.434;28.338;2023-04-27T02:00:29;99343.00;;;9.89;100.00
26087;BME280;13851;43.434;28.338;2023-04-27T02:02:55;99337.94;;;10.08;100.00
26087;BME280;13851;43.434;28.338;2023-04-27T02:05:22;99288.31;;;9.75;100.00
26087;BME280;13851;43.434;28.338;2023-04-27T02:07:48;99292.25;;;9.72;100.00
26087;BME280;13851;43.434;28.338;2023-04-27T02:10:14;99314.81;;;9.59;100.00
26087;BME280;13851;43.434;28.338;2023-04-27T02:12:40;99336.75;;;9.96;100.00
26087;BME280;13851;43.434;28.338;2023-04-27T02:15:07;99142.41;;;8.80;100.00
26087;BME280;13851;43.434;28.338;2023-04-27T02:17:33;99340.53;;;9.95;100.00
26087;BME280;13851;43.434;28.338;2023-04-27T02:19:59;99273.91;;;9.51;100.00
26087;BME280;13851;43.434;28.338;2023-04-27T02:22:25;99253.91;;;9.36;100.00
26087;BME280;13851;43.434;28.338;2023-04-27T02:24:51;99280.53;;;9.42;100.00
26087;BME280;13851;43.434;28.338;2023-04-27T02:27:16;99306.72;;;9.51;100.00
26087;BME280;13851;43.434;28.338;2023-04-27T02:29:42;99261.66;;;9.18;100.00
26087;BME280;13851;43.434;28.338;2023-04-27T02:32:07;99298.13;;;9.40;100.00
26087;BME280;13851;43.434;28.338;2023-04-27T02:34:33;99067.38;;;7.94;100.00
26087;BME280;13851;43.434;28.338;2023-04-27T02:36:58;99344.25;;;9.57;100.00
26087;BME280;13851;43.434;28.338;2023-04-27T02:39:24;99280.31;;;9.14;100.00
26087;BME280;13851;43.434;28.338;2023-04-27T02:41:49;99276.94;;;9.12;100.00
26087;BME280;13851;43.434;28.338;2023-04-27T02:44:15;99302.56;;;9.11;100.00
26087;BME280;13851;43.434;28.338;2023-04-27T02:46:40;98925.38;;;6.91;100.00
26087;BME280;13851;43.434;28.338;2023-04-27T02:49:06;98955.03;;;7.09;100.00
26087;BME280;13851;43.434;28.338;2023-04-27T02:51:31;98996.97;;;7.22;100.00
26087;BME280;13851;43.434;28.338;2023-04-27T02:53:57;99303.22;;;9.13;100.00
26087;BME280;13851;43.434;28.338;2023-04-27T02:56:22;99349.03;;;9.41;100.00
26087;BME280;13851;43.434;28.338;2023-04-27T02:58:48;99384.16;;;9.14;100.00
26087;BME280;13851;43.434;28.338;2023-04-27T03:01:16;99312.34;;;9.20;100.00
26087;BME280;13851;43.434;28.338;2023-04-27T03:03:45;99343.44;;;9.19;100.00
26087;BME280;13851;43.434;28.338;2023-04-27T03:06:14;99325.06;;;9.13;100.00
26087;BME280;13851;43.434;28.338;2023-04-27T03:08:40;99378.03;;;9.12;100.00
26087;BME280;13851;43.434;28.338;2023-04-27T03:11:05;99360.78;;;9.26;100.00
26087;BME280;13851;43.434;28.338;2023-04-27T03:13:31;99198.84;;;8.27;100.00
26087;BME280;13851;43.434;28.338;2023-04-27T03:16:09;99267.75;;;8.75;100.00
26087;BME280;13851;43.434;28.338;2023-04-27T03:18:37;99293.63;;;8.79;100.00
26087;BME280;13851;43.434;28.338;2023-04-27T03:21:05;99201.06;;;7.86;100.00
26087;BME280;13851;43.434;28.338;2023-04-27T03:23:31;99395.59;;;9.32;100.00
26087;BME280;13851;43.434;28.338;2023-04-27T03:25:57;99384.38;;;9.27;100.00
26087;BME280;13851;43.434;28.338;2023-04-27T03:28:22;99143.91;;;7.93;100.00
26087;BME280;13851;43.434;28.338;2023-04-27T03:30:47;99438.78;;;9.52;100.00
26087;BME280;13851;43.434;28.338;2023-04-27T03:33:13;99408.28;;;9.63;100.00
26087;BME280;13851;43.434;28.338;2023-04-27T03:35:38;99059.66;;;7.60;100.00
26087;BME280;13851;43.434;28.338;2023-04-27T03:38:07;99403.38;;;9.73;100.00
26087;BME280;13851;43.434;28.338;2023-04-27T03:40:32;99436.50;;;9.93;100.00
26087;BME280;13851;43.434;28.338;2023-04-27T03:42:58;99392.81;;;9.70;100.00
26087;BME280;13851;43.434;28.338;2023-04-27T03:45:23;99444.69;;;10.08;100.00
26087;BME280;13851;43.434;28.338;2023-04-27T03:47:49;99383.19;;;9.74;100.00
26087;BME280;13851;43.434;28.338;2023-04-27T03:50:15;99433.38;;;10.11;100.00
26087;BME280;13851;43.434;28.338;2023-04-27T03:52:41;99379.50;;;9.82;100.00
26087;BME280;13851;43.434;28.338;2023-04-27T03:55:06;99111.19;;;8.30;100.00
26087;BME280;13851;43.434;28.338;2023-04-27T03:57:32;99401.94;;;10.22;100.00
26087;BME280;13851;43.434;28.338;2023-04-27T03:59:57;99423.25;;;10.56;100.00
26087;BME280;13851;43.434;28.338;2023-04-27T04:02:23;99436.16;;;10.62;100.00
26087;BME280;13851;43.434;28.338;2023-04-27T04:04:48;99445.97;;;10.92;100.00
26087;BME280;13851;43.434;28.338;2023-04-27T04:07:14;99421.69;;;10.89;100.00
26087;BME280;13851;43.434;28.338;2023-04-27T04:09:40;99405.44;;;10.66;100.00
26087;BME280;13851;43.434;28.338;2023-04-27T04:12:07;99424.31;;;10.98;100.00
26087;BME280;13851;43.434;28.338;2023-04-27T04:14:33;99460.06;;;10.89;100.00
26087;BME280;13851;43.434;28.338;2023-04-27T04:16:58;99438.47;;;11.23;100.00
26087;BME280;13851;43.434;28.338;2023-04-27T04:19:24;99204.69;;;9.66;100.00
26087;BME280;13851;43.434;28.338;2023-04-27T04:21:50;99409.69;;;11.12;100.00
26087;BME280;13851;43.434;28.338;2023-04-27T04:24:15;99468.09;;;11.34;100.00
26087;BME280;13851;43.434;28.338;2023-04-27T04:26:41;99441.28;;;11.29;100.00
26087;BME280;13851;43.434;28.338;2023-04-27T04:29:06;99459.41;;;11.30;100.00
26087;BME280;13851;43.434;28.338;2023-04-27T04:31:31;99053.03;;;8.89;100.00
26087;BME280;13851;43.434;28.338;2023-04-27T04:33:59;99411.16;;;11.36;100.00
26087;BME280;13851;43.434;28.338;2023-04-27T04:36:25;99441.22;;;11.23;100.00
26087;BME280;13851;43.434;28.338;2023-04-27T04:38:52;99369.44;;;11.12;100.00
26087;BME280;13851;43.434;28.338;2023-04-27T04:41:19;99441.41;;;11.70;100.00
26087;BME280;13851;43.434;28.338;2023-04-27T04:43:44;99465.63;;;11.39;100.00
26087;BME280;13851;43.434;28.338;2023-04-27T04:46:12;99373.94;;;10.99;100.00
26087;BME280;13851;43.434;28.338;2023-04-27T04:48:38;99430.13;;;11.09;100.00
26087;BME280;13851;43.434;28.338;2023-04-27T04:51:04;99344.50;;;10.43;100.00
26087;BME280;13851;43.434;28.338;2023-04-27T04:53:31;99489.56;;;10.87;100.00
26087;BME280;13851;43.434;28.338;2023-04-27T04:55:56;99430.84;;;10.75;100.00
26087;BME280;13851;43.434;28.338;2023-04-27T04:58:22;99327.38;;;10.20;100.00
26087;BME280;13851;43.434;28.338;2023-04-27T05:00:48;99423.78;;;10.66;100.00
26087;BME280;13851;43.434;28.338;2023-04-27T05:03:13;99467.97;;;10.63;100.00
26087;BME280;13851;43.434;28.338;2023-04-27T05:05:38;99410.50;;;10.48;100.00
26087;BME280;13851;43.434;28.338;2023-04-27T05:08:04;99410.63;;;10.40;100.00
26087;BME280;13851;43.434;28.338;2023-04-27T05:10:30;99126.59;;;8.76;100.00
26087;BME280;13851;43.434;28.338;2023-04-27T05:12:55;99466.28;;;10.62;100.00
26087;BME280;13851;43.434;28.338;2023-04-27T05:15:21;99432.09;;;10.58;100.00
26087;BME280;13851;43.434;28.338;2023-04-27T05:17:46;99109.75;;;8.72;100.00
26087;BME280;13851;43.434;28.338;2023-04-27T05:20:12;98982.09;;;8.15;100.00
26087;BME280;13851;43.434;28.338;2023-04-27T05:22:37;99026.16;;;8.42;100.00
26087;BME280;13851;43.434;28.338;2023-04-27T05:25:03;99011.06;;;8.31;100.00
26087;BME280;13851;43.434;28.338;2023-04-27T05:27:29;99426.78;;;10.92;100.00
26087;BME280;13851;43.434;28.338;2023-04-27T05:29:54;99416.69;;;10.93;100.00
26087;BME280;13851;43.434;28.338;2023-04-27T05:32:20;98826.22;;;7.38;100.00
26087;BME280;13851;43.434;28.338;2023-04-27T05:34:45;99485.47;;;10.98;100.00
26087;BME280;13851;43.434;28.338;2023-04-27T05:37:11;99412.31;;;10.99;100.00
26087;BME280;13851;43.434;28.338;2023-04-27T05:39:37;99419.63;;;11.13;100.00
26087;BME280;13851;43.434;28.338;2023-04-27T05:42:03;99426.84;;;10.99;100.00
26087;BME280;13851;43.434;28.338;2023-04-27T05:44:29;99430.50;;;11.28;100.00
26087;BME280;13851;43.434;28.338;2023-04-27T05:46:55;99368.53;;;10.84;100.00
26087;BME280;13851;43.434;28.338;2023-04-27T05:49:20;99431.34;;;11.28;100.00
26087;BME280;13851;43.434;28.338;2023-04-27T05:51:46;99177.31;;;9.66;100.00
26087;BME280;13851;43.434;28.338;2023-04-27T05:54:12;99411.38;;;11.34;100.00
26087;BME280;13851;43.434;28.338;2023-04-27T05:56:37;99058.44;;;9.40;100.00
26087;BME280;13851;43.434;28.338;2023-04-27T05:59:03;99394.66;;;11.29;100.00
26087;BME280;13851;43.434;28.338;2023-04-27T06:01:28;99416.31;;;11.45;100.00
26087;BME280;13851;43.434;28.338;2023-04-27T06:03:54;99418.53;;;11.57;100.00
26087;BME280;13851;43.434;28.338;2023-04-27T06:06:20;99472.03;;;11.74;100.00
26087;BME280;13851;43.434;28.338;2023-04-27T06:08:45;99403.81;;;11.71;100.00
26087;BME280;13851;43.434;28.338;2023-04-27T06:11:11;99400.84;;;11.66;100.00
26087;BME280;13851;43.434;28.338;2023-04-27T06:13:36;99425.19;;;11.76;100.00
26087;BME280;13851;43.434;28.338;2023-04-27T06:16:02;99352.59;;;11.43;100.00
26087;BME280;13851;43.434;28.338;2023-04-27T06:18:28;99415.06;;;11.76;100.00
26087;BME280;13851;43.434;28.338;2023-04-27T06:21:00;99086.19;;;9.80;100.00
26087;BME280;13851;43.434;28.338;2023-04-27T06:23:26;99426.66;;;12.00;100.00
26087;BME280;13851;43.434;28.338;2023-04-27T06:25:52;99434.88;;;12.00;100.00
26087;BME280;13851;43.434;28.338;2023-04-27T06:28:17;99425.38;;;12.02;100.00
26087;BME280;13851;43.434;28.338;2023-04-27T06:30:43;99197.31;;;10.73;100.00
26087;BME280;13851;43.434;28.338;2023-04-27T06:33:09;99394.75;;;11.99;100.00
26087;BME280;13851;43.434;28.338;2023-04-27T06:35:34;99447.53;;;12.29;100.00
26087;BME280;13851;43.434;28.338;2023-04-27T06:38:00;99291.66;;;11.48;100.00
26087;BME280;13851;43.434;28.338;2023-04-27T06:40:26;99518.38;;;12.46;100.00
26087;BME280;13851;43.434;28.338;2023-04-27T06:42:54;99468.16;;;12.59;100.00
26087;BME280;13851;43.434;28.338;2023-04-27T06:45:19;99090.88;;;10.35;100.00
26087;BME280;13851;43.434;28.338;2023-04-27T06:47:45;99270.28;;;11.37;100.00
26087;BME280;13851;43.434;28.338;2023-04-27T06:50:10;99377.25;;;12.00;100.00
26087;BME280;13851;43.434;28.338;2023-04-27T06:52:36;99450.28;;;12.35;100.00
26087;BME280;13851;43.434;28.338;2023-04-27T06:55:01;99418.41;;;12.00;100.00
26087;BME280;13851;43.434;28.338;2023-04-27T06:57:27;99486.22;;;12.40;100.00
26087;BME280;13851;43.434;28.338;2023-04-27T06:59:52;99467.34;;;12.24;100.00
26087;BME280;13851;43.434;28.338;2023-04-27T07:02:18;99361.16;;;11.62;100.00
26087;BME280;13851;43.434;28.338;2023-04-27T07:04:43;99467.00;;;12.06;100.00
26087;BME280;13851;43.434;28.338;2023-04-27T07:07:09;99462.81;;;12.10;100.00
26087;BME280;13851;43.434;28.338;2023-04-27T07:09:35;99147.97;;;10.17;100.00
26087;BME280;13851;43.434;28.338;2023-04-27T07:12:01;99469.53;;;12.07;100.00
26087;BME280;13851;43.434;28.338;2023-04-27T07:14:27;99495.59;;;12.53;100.00
26087;BME280;13851;43.434;28.338;2023-04-27T07:16:52;99140.84;;;10.72;100.00
26087;BME280;13851;43.434;28.338;2023-04-27T07:19:18;99545.75;;;13.16;100.00
26087;BME280;13851;43.434;28.338;2023-04-27T07:21:43;99510.50;;;13.26;100.00
26087;BME280;13851;43.434;28.338;2023-04-27T07:24:09;99518.38;;;13.69;100.00
26087;BME280;13851;43.434;28.338;2023-04-27T07:26:34;99519.44;;;13.88;100.00
26087;BME280;13851;43.434;28.338;2023-04-27T07:29:00;99366.13;;;12.95;100.00
26087;BME280;13851;43.434;28.338;2023-04-27T07:31:26;99490.41;;;13.85;100.00
26087;BME280;13851;43.434;28.338;2023-04-27T07:33:52;99464.56;;;13.99;100.00
26087;BME280;13851;43.434;28.338;2023-04-27T07:36:17;99489.56;;;14.18;100.00
26087;BME280;13851;43.434;28.338;2023-04-27T07:38:43;99511.31;;;14.52;100.00
26087;BME280;13851;43.434;28.338;2023-04-27T07:41:09;99387.72;;;13.71;100.00
26087;BME280;13851;43.434;28.338;2023-04-27T07:43:35;99442.53;;;13.99;100.00
26087;BME280;13851;43.434;28.338;2023-04-27T07:46:01;99180.09;;;12.49;100.00
26087;BME280;13851;43.434;28.338;2023-04-27T07:48:27;99230.59;;;12.75;100.00
26087;BME280;13851;43.434;28.338;2023-04-27T07:50:53;99497.97;;;14.36;100.00
26087;BME280;13851;43.434;28.338;2023-04-27T07:53:19;99537.34;;;14.63;100.00
26087;BME280;13851;43.434;28.338;2023-04-27T07:55:45;99581.91;;;14.67;100.00
26087;BME280;13851;43.434;28.338;2023-04-27T07:58:11;99468.09;;;14.40;100.00
26087;BME280;13851;43.434;28.338;2023-04-27T08:00:37;99557.19;;;14.98;100.00
26087;BME280;13851;43.434;28.338;2023-04-27T08:03:02;99208.38;;;12.90;100.00
26087;BME280;13851;43.434;28.338;2023-04-27T08:05:28;99576.50;;;15.05;100.00
26087;BME280;13851;43.434;28.338;2023-04-27T08:07:54;99605.97;;;15.04;100.00
26087;BME280;13851;43.434;28.338;2023-04-27T08:10:19;99360.88;;;13.67;100.00
26087;BME280;13851;43.434;28.338;2023-04-27T08:12:45;99494.19;;;14.95;100.00
26087;BME280;13851;43.434;28.338;2023-04-27T08:15:10;99312.53;;;13.84;100.00
26087;BME280;13851;43.434;28.338;2023-04-27T08:17:36;99526.41;;;15.40;100.00
26087;BME280;13851;43.434;28.338;2023-04-27T08:20:05;99551.00;;;15.48;100.00
26087;BME280;13851;43.434;28.338;2023-04-27T08:22:31;99579.44;;;15.48;100.00
26087;BME280;13851;43.434;28.338;2023-04-27T08:24:56;99582.66;;;15.83;100.00
26087;BME280;13851;43.434;28.338;2023-04-27T08:27:22;99560.78;;;15.82;100.00
26087;BME280;13851;43.434;28.338;2023-04-27T08:29:49;99564.16;;;15.84;100.00
26087;BME280;13851;43.434;28.338;2023-04-27T08:32:15;99589.28;;;16.07;100.00
26087;BME280;13851;43.434;28.338;2023-04-27T08:34:41;99567.72;;;15.91;100.00
26087;BME280;13851;43.434;28.338;2023-04-27T08:37:09;99613.09;;;16.08;100.00
26087;BME280;13851;43.434;28.338;2023-04-27T08:39:34;99593.91;;;16.14;100.00
26087;BME280;13851;43.434;28.338;2023-04-27T08:42:00;99579.47;;;16.11;100.00
26087;BME280;13851;43.434;28.338;2023-04-27T08:44:25;99559.59;;;15.96;100.00
26087;BME280;13851;43.434;28.338;2023-04-27T08:46:51;99506.53;;;15.63;100.00
26087;BME280;13851;43.434;28.338;2023-04-27T08:49:17;99572.66;;;16.14;100.00
26087;BME280;13851;43.434;28.338;2023-04-27T08:51:44;99492.28;;;15.66;100.00
26087;BME280;13851;43.434;28.338;2023-04-27T08:54:10;99577.25;;;15.95;100.00
26087;BME280;13851;43.434;28.338;2023-04-27T08:56:35;99398.16;;;15.17;100.00
26087;BME280;13851;43.434;28.338;2023-04-27T08:59:01;99310.09;;;14.59;100.00
26087;BME280;13851;43.434;28.338;2023-04-27T09:01:29;99596.50;;;16.33;100.00
26087;BME280;13851;43.434;28.338;2023-04-27T09:03:57;99431.56;;;15.34;100.00
26087;BME280;13851;43.434;28.338;2023-04-27T09:08:55;99372.97;;;15.07;100.00
26087;BME280;13851;43.434;28.338;2023-04-27T09:11:29;99255.00;;;14.46;100.00
26087;BME280;13851;43.434;28.338;2023-04-27T09:13:57;99580.13;;;16.32;100.00
26087;BME280;13851;43.434;28.338;2023-04-27T09:16:24;99580.94;;;16.39;100.00
26087;BME280;13851;43.434;28.338;2023-04-27T09:18:50;99292.31;;;14.48;98.91
26087;BME280;13851;43.434;28.338;2023-04-27T09:21:26;99610.44;;;16.20;100.00
26087;BME280;13851;43.434;28.338;2023-04-27T09:23:52;99584.44;;;16.28;100.00
26087;BME280;13851;43.434;28.338;2023-04-27T09:26:20;99552.50;;;16.32;100.00
26087;BME280;13851;43.434;28.338;2023-04-27T09:28:48;99582.88;;;16.14;100.00
26087;BME280;13851;43.434;28.338;2023-04-27T09:31:14;99572.00;;;16.37;100.00
26087;BME280;13851;43.434;28.338;2023-04-27T09:33:40;99523.50;;;16.16;100.00
26087;BME280;13851;43.434;28.338;2023-04-27T09:36:05;99613.59;;;16.49;100.00
26087;BME280;13851;43.434;28.338;2023-04-27T09:38:32;99576.06;;;16.59;100.00
26087;BME280;13851;43.434;28.338;2023-04-27T09:40:59;99573.63;;;16.70;100.00
26087;BME280;13851;43.434;28.338;2023-04-27T09:43:25;99542.59;;;16.86;100.00
26087;BME280;13851;43.434;28.338;2023-04-27T09:45:53;99305.69;;;15.33;100.00
26087;BME280;13851;43.434;28.338;2023-04-27T09:48:21;99275.75;;;15.30;95.74
26087;BME280;13851;43.434;28.338;2023-04-27T09:50:48;99495.19;;;16.64;94.45
26087;BME280;13851;43.434;28.338;2023-04-27T09:53:20;99560.75;;;17.00;95.33
26087;BME280;13851;43.434;28.338;2023-04-27T10:01:51;99558.06;;;17.72;91.56
26087;BME280;13851;43.434;28.338;2023-04-27T10:06:59;99521.19;;;17.72;84.22
26087;BME280;13851;43.434;28.338;2023-04-27T10:09:27;99581.66;;;18.05;83.65
26087;BME280;13851;43.434;28.338;2023-04-27T10:11:54;99555.59;;;17.94;82.63
26087;BME280;13851;43.434;28.338;2023-04-27T10:14:22;99343.63;;;16.54;80.56
26087;BME280;13851;43.434;28.338;2023-04-27T10:16:52;99500.22;;;17.34;84.52
26087;BME280;13851;43.434;28.338;2023-04-27T10:19:18;99561.22;;;17.76;85.94
26087;BME280;13851;43.434;28.338;2023-04-27T10:21:59;99293.56;;;16.14;85.65
26087;BME280;13851;43.434;28.338;2023-04-27T10:24:36;99555.22;;;17.60;82.55
26087;BME280;13851;43.434;28.338;2023-04-27T10:27:04;99513.19;;;17.52;78.34
26087;BME280;13851;43.434;28.338;2023-04-27T10:29:41;99526.41;;;17.20;82.83
26087;BME280;13851;43.434;28.338;2023-04-27T10:32:22;99272.28;;;15.96;87.02
26087;BME280;13851;43.434;28.338;2023-04-27T10:34:49;99557.59;;;17.75;82.31
26087;BME280;13851;43.434;28.338;2023-04-27T10:37:15;99213.66;;;16.13;79.64
26087;BME280;13851;43.434;28.338;2023-04-27T10:39:43;99564.22;;;18.51;84.32
26087;BME280;13851;43.434;28.338;2023-04-27T10:42:09;99172.53;;;16.46;79.91
26087;BME280;13851;43.434;28.338;2023-04-27T10:44:36;99397.13;;;18.21;74.86
26087;BME280;13851;43.434;28.338;2023-04-27T10:47:15;99277.78;;;17.40;73.75
26087;BME280;13851;43.434;28.338;2023-04-27T10:49:44;99559.69;;;19.20;73.90
26087;BME280;13851;43.434;28.338;2023-04-27T10:52:10;99519.91;;;19.03;70.03
26087;BME280;13851;43.434;28.338;2023-04-27T10:54:35;99517.63;;;18.88;73.84
26087;BME280;13851;43.434;28.338;2023-04-27T10:57:06;99529.38;;;18.79;69.01
26087;BME280;13851;43.434;28.338;2023-04-27T10:59:33;99526.47;;;18.62;69.27
26087;BME280;13851;43.434;28.338;2023-04-27T11:01:59;99423.31;;;18.13;69.12
26087;BME280;13851;43.434;28.338;2023-04-27T11:04:35;99530.13;;;18.74;70.67
26087;BME280;13851;43.434;28.338;2023-04-27T11:07:02;99513.34;;;18.69;69.27
26087;BME280;13851;43.434;28.338;2023-04-27T11:09:29;99499.31;;;18.87;73.39
26087;BME280;13851;43.434;28.338;2023-04-27T11:11:54;99452.06;;;18.59;71.51
26087;BME280;13851;43.434;28.338;2023-04-27T11:14:20;99089.03;;;16.79;70.49
26087;BME280;13851;43.434;28.338;2023-04-27T11:16:47;99209.28;;;17.47;68.06
26087;BME280;13851;43.434;28.338;2023-04-27T11:19:13;99401.75;;;18.79;65.71
26087;BME280;13851;43.434;28.338;2023-04-27T11:21:38;99523.81;;;19.59;61.64
26087;BME280;13851;43.434;28.338;2023-04-27T11:24:05;99510.78;;;19.48;60.99
26087;BME280;13851;43.434;28.338;2023-04-27T11:26:31;99449.09;;;19.17;58.81
26087;BME280;13851;43.434;28.338;2023-04-27T11:28:59;99484.91;;;19.31;60.68
26087;BME280;13851;43.434;28.338;2023-04-27T11:31:26;99418.91;;;18.92;60.84
26087;BME280;13851;43.434;28.338;2023-04-27T11:33:53;99227.78;;;17.70;61.56
26087;BME280;13851;43.434;28.338;2023-04-27T11:36:21;99148.47;;;17.52;59.85
26087;BME280;13851;43.434;28.338;2023-04-27T11:38:47;99554.47;;;19.64;59.91
26087;BME280;13851;43.434;28.338;2023-04-27T11:41:13;99503.97;;;19.67;59.78
26087;BME280;13851;43.434;28.338;2023-04-27T11:43:43;99473.44;;;19.56;60.46
26087;BME280;13851;43.434;28.338;2023-04-27T11:46:12;99493.53;;;19.74;57.29
26087;BME280;13851;43.434;28.338;2023-04-27T11:48:38;99467.00;;;19.38;57.96
26087;BME280;13851;43.434;28.338;2023-04-27T11:51:05;99534.56;;;20.01;59.07
26087;BME280;13851;43.434;28.338;2023-04-27T11:53:32;99545.53;;;20.08;59.87
26087;BME280;13851;43.434;28.338;2023-04-27T11:55:59;99524.97;;;20.09;57.20
26087;BME280;13851;43.434;28.338;2023-04-27T11:58:27;99182.19;;;18.30;55.88
26087;BME280;13851;43.434;28.338;2023-04-27T12:00:56;99556.38;;;20.76;54.67
26087;BME280;13851;43.434;28.338;2023-04-27T12:03:22;99565.97;;;20.86;53.16
26087;BME280;13851;43.434;28.338;2023-04-27T12:05:49;99599.47;;;21.13;50.84
26087;BME280;13851;43.434;28.338;2023-04-27T12:08:15;99522.81;;;20.83;49.41
26087;BME280;13851;43.434;28.338;2023-04-27T12:10:41;99564.84;;;21.25;48.19
26087;BME280;13851;43.434;28.338;2023-04-27T12:13:07;99551.47;;;21.27;48.51
26087;BME280;13851;43.434;28.338;2023-04-27T12:15:32;99496.16;;;20.70;47.46
26087;BME280;13851;43.434;28.338;2023-04-27T12:17:58;99579.88;;;21.24;46.51
26087;BME280;13851;43.434;28.338;2023-04-27T12:20:24;99537.09;;;21.14;44.86
26087;BME280;13851;43.434;28.338;2023-04-27T12:22:49;99573.78;;;21.27;42.85
26087;BME280;13851;43.434;28.338;2023-04-27T12:25:15;99279.13;;;19.49;44.12
26087;BME280;13851;43.434;28.338;2023-04-27T12:27:42;99331.22;;;19.92;43.75
26087;BME280;13851;43.434;28.338;2023-04-27T12:30:11;99543.13;;;21.27;42.45
26087;BME280;13851;43.434;28.338;2023-04-27T12:32:37;99472.50;;;20.90;41.20
26087;BME280;13851;43.434;28.338;2023-04-27T12:35:04;99558.44;;;21.47;41.90
26087;BME280;13851;43.434;28.338;2023-04-27T12:37:30;99570.81;;;21.56;41.97
26087;BME280;13851;43.434;28.338;2023-04-27T12:39:56;99558.44;;;21.47;41.36
26087;BME280;13851;43.434;28.338;2023-04-27T12:42:22;99574.00;;;21.70;42.13
26087;BME280;13851;43.434;28.338;2023-04-27T12:44:49;99581.72;;;21.85;43.01
26087;BME280;13851;43.434;28.338;2023-04-27T12:47:21;99585.88;;;21.82;40.99
26087;BME280;13851;43.434;28.338;2023-04-27T12:49:47;99349.78;;;20.47;40.55
26087;BME280;13851;43.434;28.338;2023-04-27T12:52:13;99281.47;;;19.96;40.38